Time;durP1;ratioP1;P1;durP2;ratioP2;P2;SDS_P1;SDS_P2;PMS_P1;PMS_P2;Temp;Humidity;BMP_temperature;BMP_pressure;BME280_temperature;BME280_humidity;BME280_pressure;Samples;Min_cycle;Max_cycle;Signal;HPM_P1;HPM_P2
2023/07/13 01:53:09;;;;;;;7.50;3.37;;;;;;;;;;4381045;26;20485;-74
2023/07/13 01:55:37;;;;;;;3.57;2.60;;;;;;;;;;5063898;28;20514;-74
2023/07/13 01:58:05;;;;;;;7.40;3.77;;;;;;;;;;5061375;28;20484;-74
2023/07/13 02:00:32;;;;;;;7.90;3.17;;;;;;;;;;5062652;28;20450;-74
2023/07/13 02:03:00;;;;;;;4.90;2.87;;;;;;;;;;5062338;28;20944;-74
2023/07/13 02:05:28;;;;;;;7.03;3.70;;;;;;;;;;5061803;28;20462;-74
2023/07/13 02:07:58;;;;;;;7.40;2.87;;;;;;;;;;5063264;28;20477;-74
2023/07/13 02:10:28;;;;;;;7.50;3.30;;;;;;;;;;5060856;28;20477;-74
2023/07/13 02:12:56;;;;;;;7.10;2.90;;;;;;;;;;5060906;28;20449;-75
2023/07/13 02:15:24;;;;;;;5.27;3.53;;;;;;;;;;5056971;28;20512;-75
2023/07/13 02:17:52;;;;;;;6.37;3.10;;;;;;;;;;5039026;28;20489;-74
2023/07/13 02:20:23;;;;;;;4.93;3.00;;;;;;;;;;5042258;28;20464;-74
2023/07/13 02:22:50;;;;;;;5.90;3.40;;;;;;;;;;5058618;28;20453;-74
2023/07/13 02:25:18;;;;;;;6.37;3.53;;;;;;;;;;5057896;28;20441;-74
2023/07/13 02:27:48;;;;;;;6.53;3.10;;;;;;;;;;5056711;28;20803;-74
2023/07/13 02:30:24;;;;;;;8.13;3.63;;;;;;;;;;5059842;28;20461;-74
2023/07/13 02:32:51;;;;;;;3.60;3.07;;;;;;;;;;5056625;28;20525;-74
2023/07/13 02:35:19;;;;;;;4.77;3.37;;;;;;;;;;5056707;28;20489;-74
2023/07/13 02:37:51;;;;;;;6.50;3.17;;;;;;;;;;5056819;28;20441;-73
2023/07/13 02:45:45;;;;;;;4.70;3.50;;;;;;;;;;4386403;26;20921;-78
2023/07/13 02:48:12;;;;;;;8.23;3.93;;;;;;;;;;5065201;28;20493;-80
2023/07/13 02:50:39;;;;;;;4.63;3.20;;;;;;;;;;5065784;28;20468;-79
2023/07/13 02:53:06;;;;;;;11.27;3.47;;;;;;;;;;5066199;28;20523;-78
2023/07/13 02:55:34;;;;;;;8.20;4.57;;;;;;;;;;5064220;28;21025;-79
2023/07/13 02:58:01;;;;;;;7.70;3.33;;;;;;;;;;5065002;28;20687;-80
2023/07/13 03:00:28;;;;;;;8.07;3.60;;;;;;;;;;5063450;28;20459;-79
2023/07/13 03:02:58;;;;;;;4.90;2.87;;;;;;;;;;5061064;28;20464;-80
2023/07/13 03:05:28;;;;;;;6.73;4.00;;;;;;;;;;5060689;28;20475;-77
2023/07/13 03:07:55;;;;;;;9.60;4.70;;;;;;;;;;5059181;28;20485;-78
2023/07/13 03:10:23;;;;;;;6.70;3.50;;;;;;;;;;5061785;28;20532;-79
2023/07/13 03:12:50;;;;;;;4.13;3.53;;;;;;;;;;5062989;28;20862;-78
2023/07/13 03:15:18;;;;;;;7.40;4.07;;;;;;;;;;5064595;28;20449;-78
2023/07/13 03:17:45;;;;;;;4.80;3.50;;;;;;;;;;5060935;28;20569;-79
2023/07/13 03:20:16;;;;;;;5.30;3.20;;;;;;;;;;5059968;28;20461;-80
2023/07/13 03:22:44;;;;;;;4.73;3.67;;;;;;;;;;5059947;28;20516;-79
2023/07/13 03:25:11;;;;;;;6.77;3.47;;;;;;;;;;5059219;28;20526;-79
2023/07/13 03:27:38;;;;;;;5.77;3.20;;;;;;;;;;5059428;28;20481;-77
2023/07/13 03:30:07;;;;;;;5.77;3.13;;;;;;;;;;5058792;28;20540;-78
2023/07/13 03:32:35;;;;;;;5.37;4.00;;;;;;;;;;5057849;28;20469;-79
2023/07/13 03:35:02;;;;;;;4.57;3.80;;;;;;;;;;5057352;28;20994;-77
2023/07/13 03:37:31;;;;;;;5.20;3.57;;;;;;;;;;5056966;28;20473;-79
2023/07/13 03:39:58;;;;;;;10.10;3.13;;;;;;;;;;5057642;28;20456;-79
2023/07/13 03:42:25;;;;;;;6.63;3.23;;;;;;;;;;5058732;28;20438;-79
2023/07/13 03:44:53;;;;;;;5.10;3.63;;;;;;;;;;5057976;28;20790;-80
2023/07/13 03:47:20;;;;;;;4.30;3.37;;;;;;;;;;5057720;28;20972;-80
2023/07/13 03:49:47;;;;;;;6.70;3.43;;;;;;;;;;5060401;28;20560;-79
2023/07/13 03:52:15;;;;;;;5.13;3.20;;;;;;;;;;5060409;28;20927;-80
2023/07/13 03:54:43;;;;;;;7.20;3.30;;;;;;;;;;5060044;28;20499;-80
2023/07/13 03:57:11;;;;;;;8.87;4.43;;;;;;;;;;5060309;28;20543;-80
2023/07/13 03:59:38;;;;;;;5.87;3.60;;;;;;;;;;5059556;28;20461;-79
2023/07/13 04:02:06;;;;;;;6.23;3.00;;;;;;;;;;5060671;28;20442;-80
2023/07/13 04:04:33;;;;;;;6.13;3.17;;;;;;;;;;5061064;28;20461;-80
2023/07/13 04:07:00;;;;;;;4.80;3.30;;;;;;;;;;5060439;28;20714;-79
2023/07/13 04:09:28;;;;;;;6.17;3.20;;;;;;;;;;5061143;28;20483;-80
2023/07/13 04:11:57;;;;;;;6.37;3.00;;;;;;;;;;5061356;28;20472;-80
2023/07/13 04:14:24;;;;;;;5.20;3.20;;;;;;;;;;5060160;28;20785;-80
2023/07/13 04:16:51;;;;;;;6.67;3.30;;;;;;;;;;5060725;28;20462;-79
2023/07/13 04:19:19;;;;;;;7.80;3.40;;;;;;;;;;5060189;28;20480;-79
2023/07/13 04:21:48;;;;;;;9.80;3.23;;;;;;;;;;5064245;28;20445;-79
2023/07/13 04:24:16;;;;;;;5.43;3.23;;;;;;;;;;5063175;28;20453;-78
2023/07/13 04:26:44;;;;;;;8.47;4.37;;;;;;;;;;5060605;28;20461;-80
2023/07/13 04:29:12;;;;;;;6.90;3.50;;;;;;;;;;5057384;28;20738;-78
2023/07/13 04:31:39;;;;;;;5.83;3.80;;;;;;;;;;5057249;28;20468;-78
2023/07/13 04:34:07;;;;;;;5.50;3.30;;;;;;;;;;5054656;28;20526;-78
2023/07/13 04:36:37;;;;;;;5.70;3.47;;;;;;;;;;5057098;28;20453;-79
2023/07/13 04:39:04;;;;;;;4.30;3.30;;;;;;;;;;5056559;28;20462;-79
2023/07/13 04:41:32;;;;;;;5.50;3.87;;;;;;;;;;5060562;28;20477;-80
2023/07/13 04:43:59;;;;;;;3.80;2.70;;;;;;;;;;5061189;28;20481;-79
2023/07/13 04:46:28;;;;;;;4.80;3.13;;;;;;;;;;5061679;28;20918;-81
2023/07/13 04:48:56;;;;;;;6.00;3.57;;;;;;;;;;5061830;28;20924;-80
2023/07/13 04:51:31;;;;;;;4.67;3.30;;;;;;;;;;5060065;28;20535;-77
2023/07/13 04:53:58;;;;;;;4.83;3.80;;;;;;;;;;5059709;28;20474;-79
2023/07/13 04:56:26;;;;;;;9.60;3.53;;;;;;;;;;5058917;28;20465;-79
2023/07/13 04:58:53;;;;;;;8.07;4.70;;;;;;;;;;5059618;28;20488;-80
2023/07/13 05:01:20;;;;;;;10.10;3.10;;;;;;;;;;5062304;28;20457;-78
2023/07/13 05:03:49;;;;;;;5.70;3.10;;;;;;;;;;5062151;28;20514;-79
2023/07/13 05:06:16;;;;;;;10.50;3.70;;;;;;;;;;5059707;28;20732;-78
2023/07/13 05:08:43;;;;;;;7.47;3.03;;;;;;;;;;5061782;28;20542;-78
2023/07/13 05:11:11;;;;;;;6.97;5.00;;;;;;;;;;5061613;28;20757;-78
2023/07/13 05:13:38;;;;;;;4.97;2.90;;;;;;;;;;5060331;28;20457;-78
2023/07/13 05:16:07;;;;;;;4.30;2.37;;;;;;;;;;5059726;28;20457;-77
2023/07/13 05:18:35;;;;;;;4.57;2.50;;;;;;;;;;5059252;28;20453;-77
2023/07/13 05:21:04;;;;;;;7.40;3.20;;;;;;;;;;5057870;28;20847;-78
2023/07/13 05:23:32;;;;;;;6.70;2.60;;;;;;;;;;5058427;28;20464;-78
2023/07/13 05:26:00;;;;;;;5.53;2.40;;;;;;;;;;5058219;28;20465;-77
2023/07/13 05:28:28;;;;;;;6.33;2.67;;;;;;;;;;5059782;28;20915;-77
2023/07/13 05:30:55;;;;;;;4.60;2.50;;;;;;;;;;5059886;28;20457;-79
2023/07/13 05:33:23;;;;;;;5.00;1.90;;;;;;;;;;5061442;28;20859;-77
2023/07/13 05:35:50;;;;;;;3.40;1.80;;;;;;;;;;5062430;28;20458;-77
2023/07/13 05:38:19;;;;;;;6.40;2.53;;;;;;;;;;5063676;28;20453;-77
2023/07/13 05:40:47;;;;;;;7.20;2.00;;;;;;;;;;5062854;28;20453;-79
2023/07/13 05:43:15;;;;;;;8.07;2.77;;;;;;;;;;5063616;28;20477;-78
2023/07/13 05:45:43;;;;;;;8.10;2.20;;;;;;;;;;5062772;28;20557;-79
2023/07/13 05:48:10;;;;;;;8.20;2.10;;;;;;;;;;5059513;28;20484;-78
2023/07/13 05:50:38;;;;;;;5.73;1.77;;;;;;;;;;5060392;28;20458;-78
2023/07/13 05:53:05;;;;;;;5.23;2.47;;;;;;;;;;5059458;28;20647;-78
2023/07/13 05:55:34;;;;;;;5.17;1.90;;;;;;;;;;5057769;28;20457;-79
2023/07/13 05:58:02;;;;;;;11.23;4.00;;;;;;;;;;5058394;28;20768;-78
2023/07/13 06:00:30;;;;;;;5.37;1.93;;;;;;;;;;5057163;28;20523;-77
2023/07/13 06:02:58;;;;;;;5.07;1.80;;;;;;;;;;5056823;28;20729;-78
2023/07/13 06:05:27;;;;;;;6.40;3.37;;;;;;;;;;5053892;28;20633;-77
2023/07/13 06:07:54;;;;;;;7.50;2.43;;;;;;;;;;5053136;28;20485;-80
2023/07/13 06:10:21;;;;;;;4.20;2.00;;;;;;;;;;5053052;28;20882;-79
2023/07/13 06:12:50;;;;;;;8.47;1.80;;;;;;;;;;5053218;28;20748;-79
2023/07/13 06:15:18;;;;;;;5.33;2.90;;;;;;;;;;5051419;28;20745;-79
2023/07/13 06:17:46;;;;;;;7.33;2.13;;;;;;;;;;5050966;28;20460;-78
2023/07/13 06:20:15;;;;;;;7.73;2.23;;;;;;;;;;5052057;28;20471;-78
2023/07/13 06:22:42;;;;;;;7.53;2.17;;;;;;;;;;5053435;28;20810;-80
2023/07/13 06:25:11;;;;;;;7.03;2.20;;;;;;;;;;5054103;28;20673;-80
2023/07/13 06:27:38;;;;;;;8.90;2.33;;;;;;;;;;5054264;28;20477;-77
2023/07/13 06:30:10;;;;;;;4.90;1.83;;;;;;;;;;5051877;28;20500;-80
2023/07/13 06:32:37;;;;;;;6.23;2.13;;;;;;;;;;5054686;28;20462;-80
2023/07/13 06:35:05;;;;;;;5.37;2.20;;;;;;;;;;5054844;28;20461;-80
2023/07/13 06:37:33;;;;;;;6.10;2.57;;;;;;;;;;5054811;28;20454;-79
2023/07/13 06:40:00;;;;;;;6.27;2.20;;;;;;;;;;5058066;28;20595;-79
2023/07/13 06:42:28;;;;;;;20.20;2.80;;;;;;;;;;5058115;28;20511;-79
2023/07/13 06:44:55;;;;;;;6.93;2.13;;;;;;;;;;5055073;28;20745;-79
2023/07/13 06:47:24;;;;;;;6.30;2.67;;;;;;;;;;5057544;28;20602;-78
2023/07/13 06:49:54;;;;;;;8.17;2.57;;;;;;;;;;5057031;28;20477;-79
2023/07/13 06:52:22;;;;;;;7.57;2.70;;;;;;;;;;5056994;28;21041;-79
2023/07/13 06:54:49;;;;;;;13.37;2.90;;;;;;;;;;5052799;28;20446;-77
2023/07/13 06:57:17;;;;;;;9.60;2.93;;;;;;;;;;5052896;28;20515;-77
2023/07/13 06:59:45;;;;;;;10.77;2.27;;;;;;;;;;5035482;28;20951;-78
2023/07/13 07:02:12;;;;;;;6.00;1.60;;;;;;;;;;5039089;28;20541;-78
2023/07/13 07:04:41;;;;;;;7.33;2.20;;;;;;;;;;5038079;28;20531;-78
2023/07/13 07:07:08;;;;;;;7.10;2.13;;;;;;;;;;5039749;28;20510;-79
2023/07/13 07:09:36;;;;;;;11.63;2.57;;;;;;;;;;5040842;28;20479;-78
2023/07/13 07:12:04;;;;;;;12.00;3.67;;;;;;;;;;5046947;28;20450;-79
2023/07/13 07:14:34;;;;;;;7.53;3.13;;;;;;;;;;5058668;28;20472;-79
2023/07/13 07:17:01;;;;;;;9.10;2.37;;;;;;;;;;5062648;28;20525;-79
2023/07/13 07:19:34;;;;;;;9.20;2.20;;;;;;;;;;5060579;28;20532;-77
2023/07/13 07:22:16;;;;;;;10.67;2.57;;;;;;;;;;5041324;28;20530;-78
2023/07/13 07:24:43;;;;;;;6.93;2.07;;;;;;;;;;5059874;28;20465;-78
2023/07/13 07:27:10;;;;;;;8.60;2.00;;;;;;;;;;5063814;28;20495;-78
2023/07/13 07:29:38;;;;;;;15.13;2.73;;;;;;;;;;5053173;28;20601;-79
2023/07/13 07:32:05;;;;;;;5.70;2.23;;;;;;;;;;5065057;28;20455;-79
2023/07/13 07:34:33;;;;;;;9.23;2.47;;;;;;;;;;5047871;28;20462;-79
2023/07/13 07:37:06;;;;;;;5.97;2.13;;;;;;;;;;5046101;28;20467;-79
2023/07/13 07:39:34;;;;;;;10.43;2.00;;;;;;;;;;5060244;28;20441;-80
2023/07/13 07:42:02;;;;;;;9.10;2.93;;;;;;;;;;5059543;28;20461;-78
2023/07/13 07:44:30;;;;;;;12.53;1.90;;;;;;;;;;5054725;28;20473;-79
2023/07/13 07:46:57;;;;;;;10.10;2.20;;;;;;;;;;5056609;28;20464;-77
2023/07/13 07:49:24;;;;;;;7.67;1.80;;;;;;;;;;5054460;28;20481;-78
2023/07/13 07:51:52;;;;;;;9.73;1.90;;;;;;;;;;5055013;28;20888;-80
2023/07/13 07:54:27;;;;;;;5.00;2.00;;;;;;;;;;5058095;28;20863;-79
2023/07/13 07:56:58;;;;;;;4.73;1.40;;;;;;;;;;5059017;28;21086;-78
2023/07/13 07:59:26;;;;;;;7.97;2.57;;;;;;;;;;5057445;28;20468;-78
2023/07/13 08:01:53;;;;;;;9.60;2.00;;;;;;;;;;5055163;28;20468;-78
2023/07/13 08:04:21;;;;;;;6.90;1.97;;;;;;;;;;5057083;28;20496;-79
2023/07/13 08:06:48;;;;;;;9.90;2.60;;;;;;;;;;5056108;28;20509;-79
2023/07/13 08:09:15;;;;;;;8.13;1.90;;;;;;;;;;5056155;28;20464;-78
2023/07/13 08:11:44;;;;;;;6.50;2.17;;;;;;;;;;5059166;28;20458;-79
2023/07/13 08:14:12;;;;;;;9.40;2.10;;;;;;;;;;5063589;28;20453;-76
2023/07/13 08:16:39;;;;;;;9.93;2.67;;;;;;;;;;5063795;28;20464;-79
2023/07/13 08:19:09;;;;;;;7.67;2.00;;;;;;;;;;5062678;28;20464;-79
2023/07/13 08:21:37;;;;;;;7.03;1.87;;;;;;;;;;5049570;28;20465;-78
2023/07/13 08:24:06;;;;;;;11.20;3.27;;;;;;;;;;5049050;28;20465;-77
2023/07/13 08:26:35;;;;;;;5.70;1.90;;;;;;;;;;5056885;28;20474;-79
2023/07/13 08:29:04;;;;;;;5.10;1.57;;;;;;;;;;5043938;28;20513;-77
2023/07/13 08:31:35;;;;;;;8.90;1.97;;;;;;;;;;5042843;28;20458;-77
2023/07/13 08:34:03;;;;;;;9.30;2.00;;;;;;;;;;5041269;28;20537;-77
2023/07/13 08:36:31;;;;;;;6.47;2.37;;;;;;;;;;5041100;28;20454;-77
2023/07/13 08:39:02;;;;;;;8.00;2.37;;;;;;;;;;5042722;28;20844;-78
2023/07/13 08:41:30;;;;;;;7.87;1.93;;;;;;;;;;5046630;28;20458;-79
2023/07/13 08:44:00;;;;;;;3.90;1.40;;;;;;;;;;5045541;28;20493;-79
2023/07/13 08:46:33;;;;;;;10.10;2.90;;;;;;;;;;5041731;28;21124;-77
2023/07/13 08:49:03;;;;;;;4.20;1.70;;;;;;;;;;5040119;28;20482;-78
2023/07/13 08:51:34;;;;;;;6.20;1.90;;;;;;;;;;5043794;28;20462;-79
2023/07/13 08:54:04;;;;;;;4.67;1.83;;;;;;;;;;5041566;28;20454;-78
2023/07/13 08:56:32;;;;;;;4.13;1.83;;;;;;;;;;5039483;28;20472;-78
2023/07/13 08:59:08;;;;;;;10.53;3.57;;;;;;;;;;5037421;28;21468;-78
2023/07/13 09:01:49;;;;;;;7.73;3.80;;;;;;;;;;5043242;28;21084;-77
2023/07/13 09:04:19;;;;;;;4.40;1.43;;;;;;;;;;5042799;28;20442;-78
2023/07/13 09:06:51;;;;;;;4.33;1.97;;;;;;;;;;5042087;28;20553;-77
2023/07/13 09:09:22;;;;;;;7.33;1.53;;;;;;;;;;5039199;28;20509;-78
2023/07/13 09:12:04;;;;;;;5.83;1.73;;;;;;;;;;5045132;28;20481;-78
2023/07/13 09:14:38;;;;;;;7.10;1.87;;;;;;;;;;5058759;28;20461;-77
2023/07/13 09:17:13;;;;;;;8.70;1.50;;;;;;;;;;5058165;28;20444;-77
2023/07/13 09:19:42;;;;;;;10.17;1.83;;;;;;;;;;5057232;28;20544;-77
2023/07/13 09:22:17;;;;;;;4.07;1.50;;;;;;;;;;5059101;28;20499;-77
2023/07/13 09:24:51;;;;;;;5.00;1.57;;;;;;;;;;5058612;28;20460;-77
2023/07/13 09:27:24;;;;;;;4.90;1.40;;;;;;;;;;5058964;28;20468;-78
2023/07/13 09:29:52;;;;;;;6.80;2.20;;;;;;;;;;5063479;28;20489;-78
2023/07/13 09:32:24;;;;;;;6.87;2.00;;;;;;;;;;5063184;28;20461;-77
2023/07/13 09:34:52;;;;;;;5.00;1.53;;;;;;;;;;5063795;28;20445;-79
2023/07/13 09:37:21;;;;;;;5.83;1.50;;;;;;;;;;5060052;28;20841;-78
2023/07/13 09:39:50;;;;;;;5.40;1.57;;;;;;;;;;5057422;28;20457;-78
2023/07/13 09:42:18;;;;;;;6.27;2.33;;;;;;;;;;5057896;28;20445;-78
2023/07/13 09:44:53;;;;;;;4.17;1.57;;;;;;;;;;5058556;28;20559;-77
2023/07/13 09:47:23;;;;;;;3.60;1.20;;;;;;;;;;5060838;28;20453;-78
2023/07/13 09:49:58;;;;;;;6.23;2.03;;;;;;;;;;5060794;28;20788;-77
2023/07/13 09:52:26;;;;;;;3.93;1.37;;;;;;;;;;5062618;28;20479;-77
2023/07/13 09:54:58;;;;;;;2.93;1.10;;;;;;;;;;5059619;28;20481;-77
2023/07/13 09:57:30;;;;;;;3.80;1.47;;;;;;;;;;5056529;28;21068;-78
2023/07/13 09:59:58;;;;;;;4.63;1.63;;;;;;;;;;5041782;28;21053;-77
2023/07/13 10:02:39;;;;;;;5.17;1.70;;;;;;;;;;5054961;28;20472;-78
2023/07/13 10:05:11;;;;;;;4.77;1.47;;;;;;;;;;5060382;28;20469;-79
2023/07/13 10:07:40;;;;;;;6.43;1.70;;;;;;;;;;5061743;28;20902;-80
2023/07/13 10:10:19;;;;;;;5.30;1.60;;;;;;;;;;5062443;28;20491;-79
2023/07/13 10:12:49;;;;;;;6.63;3.27;;;;;;;;;;5063520;28;21053;-78
2023/07/13 10:15:22;;;;;;;6.97;1.70;;;;;;;;;;5062788;28;20821;-79
2023/07/13 10:17:55;;;;;;;5.90;2.00;;;;;;;;;;5060553;28;20448;-79
2023/07/13 10:20:23;;;;;;;7.90;1.90;;;;;;;;;;5060951;28;21778;-78
2023/07/13 10:22:53;;;;;;;4.43;2.00;;;;;;;;;;5060677;28;20450;-79
2023/07/13 10:25:22;;;;;;;3.63;1.50;;;;;;;;;;5062554;28;20463;-77
2023/07/13 10:27:51;;;;;;;5.63;1.80;;;;;;;;;;5058294;28;20463;-78
2023/07/13 10:30:22;;;;;;;4.43;1.60;;;;;;;;;;5048636;28;20989;-78
2023/07/13 10:32:51;;;;;;;4.43;1.20;;;;;;;;;;5053970;28;20879;-79
2023/07/13 10:35:25;;;;;;;3.60;1.60;;;;;;;;;;5059988;28;20484;-78
2023/07/13 10:37:54;;;;;;;4.30;1.43;;;;;;;;;;5060599;28;20446;-78
2023/07/13 10:40:29;;;;;;;4.50;1.93;;;;;;;;;;5060948;28;20434;-78
2023/07/13 10:42:57;;;;;;;5.93;2.10;;;;;;;;;;5041786;28;20493;-79
2023/07/13 10:45:29;;;;;;;2.43;1.20;;;;;;;;;;5040680;28;20488;-78
2023/07/13 10:47:57;;;;;;;4.50;1.60;;;;;;;;;;5038603;28;20926;-81
2023/07/13 10:50:30;;;;;;;7.10;1.93;;;;;;;;;;5044333;28;20550;-79
2023/07/13 10:53:03;;;;;;;4.90;1.70;;;;;;;;;;5043793;28;20439;-79
2023/07/13 10:55:49;;;;;;;5.47;1.30;;;;;;;;;;5040727;28;20443;-80
2023/07/13 10:58:20;;;;;;;5.00;2.00;;;;;;;;;;5038839;28;20493;-79
2023/07/13 11:01:00;;;;;;;6.00;2.13;;;;;;;;;;5041151;28;20513;-79
2023/07/13 11:03:29;;;;;;;5.00;1.40;;;;;;;;;;5056701;28;21048;-81
2023/07/13 11:06:10;;;;;;;3.47;1.30;;;;;;;;;;5057659;28;20493;-80
2023/07/13 11:08:38;;;;;;;5.07;1.50;;;;;;;;;;5060068;28;20482;-79
2023/07/13 11:11:26;;;;;;;5.37;1.80;;;;;;;;;;5059501;28;20746;-79
2023/07/13 11:14:02;;;;;;;5.70;2.00;;;;;;;;;;5056379;28;20507;-80
2023/07/13 11:16:37;;;;;;;4.10;1.30;;;;;;;;;;5055839;28;20450;-81
2023/07/13 11:19:27;;;;;;;5.10;1.73;;;;;;;;;;5038326;28;20457;-79
2023/07/13 11:22:12;;;;;;;4.30;1.80;;;;;;;;;;5014908;28;20458;-78
2023/07/13 11:24:50;;;;;;;4.10;1.47;;;;;;;;;;5033769;28;20458;-78
2023/07/13 11:27:31;;;;;;;5.43;2.70;;;;;;;;;;5036604;28;20535;-78
2023/07/13 11:30:10;;;;;;;5.00;1.73;;;;;;;;;;5041209;28;20477;-79
2023/07/13 11:32:38;;;;;;;7.37;1.70;;;;;;;;;;5061219;28;20458;-78
2023/07/13 11:35:05;;;;;;;5.97;1.93;;;;;;;;;;5052553;28;20547;-78
2023/07/13 11:37:34;;;;;;;4.10;1.60;;;;;;;;;;5039984;28;20521;-79
2023/07/13 11:40:08;;;;;;;5.63;1.60;;;;;;;;;;5059091;28;21096;-78
2023/07/13 11:42:37;;;;;;;6.10;1.50;;;;;;;;;;5061383;28;20472;-79
2023/07/13 11:45:15;;;;;;;5.27;1.97;;;;;;;;;;5059033;28;20510;-81
2023/07/13 11:47:44;;;;;;;5.10;1.70;;;;;;;;;;5058802;28;20460;-79
2023/07/13 11:50:21;;;;;;;6.03;1.83;;;;;;;;;;5059026;28;20485;-79
2023/07/13 11:52:55;;;;;;;4.63;1.53;;;;;;;;;;5057646;28;20480;-78
2023/07/13 11:55:25;;;;;;;4.80;2.10;;;;;;;;;;5042229;28;20587;-79
2023/07/13 11:57:55;;;;;;;4.43;2.13;;;;;;;;;;5038308;28;20446;-78
2023/07/13 12:00:27;;;;;;;9.43;2.27;;;;;;;;;;5040929;28;20450;-78
2023/07/13 12:02:56;;;;;;;3.40;1.20;;;;;;;;;;5037705;28;20458;-79
2023/07/13 12:05:24;;;;;;;4.00;1.40;;;;;;;;;;5038224;28;20446;-77
2023/07/13 12:07:54;;;;;;;3.97;1.23;;;;;;;;;;5041972;28;20512;-77
2023/07/13 12:10:26;;;;;;;11.27;2.10;;;;;;;;;;5058226;28;20609;-77
2023/07/13 12:12:57;;;;;;;3.00;1.07;;;;;;;;;;5039459;28;20501;-77
2023/07/13 12:15:27;;;;;;;5.50;1.67;;;;;;;;;;5040542;28;20459;-80
2023/07/13 12:17:56;;;;;;;5.30;1.70;;;;;;;;;;5038357;28;20460;-79
2023/07/13 12:20:25;;;;;;;4.70;1.20;;;;;;;;;;5056680;28;20460;-77
2023/07/13 12:22:54;;;;;;;5.57;1.57;;;;;;;;;;5056891;28;20438;-77
2023/07/13 12:25:23;;;;;;;4.00;1.57;;;;;;;;;;5056273;28;20495;-78
2023/07/13 12:27:53;;;;;;;6.13;1.83;;;;;;;;;;5051312;28;20583;-78
2023/07/13 12:30:26;;;;;;;5.90;1.90;;;;;;;;;;5057530;28;20496;-77
2023/07/13 12:33:01;;;;;;;7.07;1.93;;;;;;;;;;5056890;28;20485;-79
2023/07/13 12:35:32;;;;;;;3.83;1.30;;;;;;;;;;5053576;28;20460;-79
2023/07/13 12:38:02;;;;;;;3.83;1.70;;;;;;;;;;5056084;28;20460;-81
2023/07/13 12:40:36;;;;;;;6.97;2.20;;;;;;;;;;5055381;28;20498;-79
2023/07/13 12:43:06;;;;;;;6.50;3.50;;;;;;;;;;5055221;28;20476;-78
2023/07/13 12:45:35;;;;;;;6.17;1.60;;;;;;;;;;5063480;28;20933;-79
2023/07/13 12:48:09;;;;;;;4.20;1.63;;;;;;;;;;5063160;28;20473;-78
2023/07/13 12:50:40;;;;;;;3.73;1.50;;;;;;;;;;5057795;28;20480;-78
2023/07/13 12:53:17;;;;;;;4.13;1.70;;;;;;;;;;5071545;28;20456;-79
2023/07/13 12:55:46;;;;;;;5.33;1.60;;;;;;;;;;5066707;28;20465;-79
2023/07/13 12:58:20;;;;;;;4.60;1.40;;;;;;;;;;5056483;28;20468;-77
2023/07/13 13:00:52;;;;;;;8.57;2.93;;;;;;;;;;5055917;28;20653;-77
2023/07/13 13:03:24;;;;;;;6.67;2.10;;;;;;;;;;5057576;28;20445;-79
2023/07/13 13:06:04;;;;;;;12.33;2.60;;;;;;;;;;5057882;28;20479;-79
2023/07/13 13:08:42;;;;;;;4.60;2.43;;;;;;;;;;5064299;28;20490;-79
2023/07/13 13:11:11;;;;;;;5.73;2.40;;;;;;;;;;5062118;28;20538;-78
2023/07/13 13:13:38;;;;;;;6.57;2.43;;;;;;;;;;5060673;28;20454;-80
2023/07/13 13:16:10;;;;;;;8.30;2.23;;;;;;;;;;5060760;28;20469;-78
2023/07/13 13:18:38;;;;;;;9.87;3.27;;;;;;;;;;5061391;28;20454;-79
2023/07/13 13:21:08;;;;;;;9.50;3.07;;;;;;;;;;5067850;28;20450;-79
2023/07/13 13:23:37;;;;;;;4.50;2.70;;;;;;;;;;5065768;28;20456;-79
2023/07/13 13:26:05;;;;;;;7.83;2.90;;;;;;;;;;5062810;28;20461;-79
2023/07/13 13:28:33;;;;;;;4.43;2.70;;;;;;;;;;5062724;28;20483;-78
2023/07/13 13:31:00;;;;;;;6.83;2.97;;;;;;;;;;5064014;28;20477;-80
2023/07/13 13:33:28;;;;;;;7.60;3.10;;;;;;;;;;5060034;28;20491;-79
2023/07/13 13:35:55;;;;;;;4.60;3.37;;;;;;;;;;5060666;28;20457;-78
2023/07/13 13:38:26;;;;;;;6.83;3.40;;;;;;;;;;5058960;28;20466;-78
2023/07/13 13:40:56;;;;;;;8.40;3.47;;;;;;;;;;5061953;28;20465;-77
2023/07/13 13:43:26;;;;;;;7.07;2.90;;;;;;;;;;5060633;28;20499;-80
2023/07/13 13:45:54;;;;;;;10.00;3.00;;;;;;;;;;5062152;28;20442;-78
2023/07/13 13:48:30;;;;;;;5.73;3.20;;;;;;;;;;5060428;28;20526;-78
2023/07/13 13:50:59;;;;;;;4.30;2.27;;;;;;;;;;5059672;28;20511;-79
2023/07/13 13:53:28;;;;;;;7.30;2.80;;;;;;;;;;5062838;28;20642;-79
2023/07/13 13:56:00;;;;;;;4.60;2.87;;;;;;;;;;5062423;28;20457;-78
2023/07/13 13:58:27;;;;;;;5.43;2.73;;;;;;;;;;5063056;28;20473;-79
2023/07/13 14:00:55;;;;;;;5.50;2.73;;;;;;;;;;5063027;28;20516;-78
2023/07/13 14:06:07;;;;;;;4.97;2.40;;;;;;;;;;5062438;28;20463;-78
2023/07/13 14:08:34;;;;;;;6.63;2.90;;;;;;;;;;5057569;28;20460;-79
2023/07/13 14:11:04;;;;;;;6.73;2.90;;;;;;;;;;5061744;28;21260;-79
2023/07/13 14:13:36;;;;;;;5.37;2.70;;;;;;;;;;5060135;28;20509;-79
2023/07/13 14:16:04;;;;;;;4.20;3.00;;;;;;;;;;5054363;28;20560;-78
2023/07/13 14:18:32;;;;;;;5.00;3.17;;;;;;;;;;5051061;28;20493;-78
2023/07/13 14:20:59;;;;;;;6.00;2.77;;;;;;;;;;5050790;28;20501;-78
2023/07/13 14:23:27;;;;;;;6.00;2.87;;;;;;;;;;5049146;28;20593;-80
2023/07/13 14:25:54;;;;;;;3.53;2.43;;;;;;;;;;5043130;28;20464;-79
2023/07/13 14:28:25;;;;;;;5.17;2.63;;;;;;;;;;5049642;28;20469;-78
2023/07/13 14:30:54;;;;;;;5.17;2.60;;;;;;;;;;5040771;28;20501;-77
2023/07/13 14:33:22;;;;;;;6.93;2.70;;;;;;;;;;5055345;28;20469;-78
2023/07/13 14:35:52;;;;;;;4.40;2.60;;;;;;;;;;5047295;28;20857;-78
2023/07/13 14:38:21;;;;;;;6.73;2.53;;;;;;;;;;5041929;28;20465;-79
2023/07/13 14:40:52;;;;;;;3.70;2.23;;;;;;;;;;5045533;28;20466;-78
2023/07/13 14:43:20;;;;;;;6.20;3.70;;;;;;;;;;5045018;28;20462;-78
2023/07/13 14:45:53;;;;;;;4.80;2.33;;;;;;;;;;5049977;28;20473;-78
2023/07/13 14:48:29;;;;;;;4.40;2.80;;;;;;;;;;5044702;28;20476;-78
2023/07/13 14:51:00;;;;;;;9.10;2.60;;;;;;;;;;5054049;28;20993;-79
2023/07/13 14:53:29;;;;;;;4.30;2.63;;;;;;;;;;5059986;28;20507;-79
2023/07/13 14:55:57;;;;;;;5.87;2.63;;;;;;;;;;5059825;28;20461;-78
2023/07/13 14:58:29;;;;;;;5.10;2.70;;;;;;;;;;5049174;28;20487;-79
2023/07/13 15:00:58;;;;;;;5.10;3.20;;;;;;;;;;5054346;28;20481;-79
2023/07/13 15:03:26;;;;;;;3.77;2.67;;;;;;;;;;5060226;28;20461;-79
2023/07/13 15:05:54;;;;;;;3.43;2.10;;;;;;;;;;5057052;28;20453;-78
2023/07/13 15:08:22;;;;;;;5.60;2.60;;;;;;;;;;5050473;28;20458;-77
2023/07/13 15:10:50;;;;;;;3.20;1.93;;;;;;;;;;5057498;28;20549;-79
2023/07/13 15:13:18;;;;;;;2.70;1.73;;;;;;;;;;5043919;28;20465;-78
2023/07/13 15:15:47;;;;;;;5.47;2.63;;;;;;;;;;5049053;28;20464;-79
2023/07/13 15:18:23;;;;;;;5.20;2.30;;;;;;;;;;5047437;28;20468;-81
2023/07/13 15:20:57;;;;;;;3.30;1.73;;;;;;;;;;5057699;28;20463;-78
2023/07/13 15:23:25;;;;;;;4.93;2.37;;;;;;;;;;5066329;28;20441;-78
2023/07/13 15:25:53;;;;;;;3.37;1.80;;;;;;;;;;5065573;28;20453;-79
2023/07/13 15:28:20;;;;;;;5.40;1.70;;;;;;;;;;5063089;28;20457;-77
2023/07/13 15:30:49;;;;;;;3.40;2.03;;;;;;;;;;5064747;28;20584;-79
2023/07/13 15:33:22;;;;;;;3.87;2.03;;;;;;;;;;5064574;28;20450;-78
2023/07/13 15:35:50;;;;;;;4.33;1.60;;;;;;;;;;5064808;28;20515;-80
2023/07/13 15:38:21;;;;;;;8.90;1.83;;;;;;;;;;5061477;28;20474;-79
2023/07/13 15:40:48;;;;;;;4.47;2.07;;;;;;;;;;5063838;28;20454;-79
2023/07/13 15:43:20;;;;;;;4.40;1.90;;;;;;;;;;5064151;28;20472;-79
2023/07/13 15:45:51;;;;;;;3.77;1.50;;;;;;;;;;5068480;28;20448;-77
2023/07/13 15:48:21;;;;;;;3.80;1.40;;;;;;;;;;5082573;28;20476;-77
2023/07/13 15:50:49;;;;;;;7.20;2.00;;;;;;;;;;5081532;28;20527;-79
2023/07/13 15:53:20;;;;;;;4.73;1.73;;;;;;;;;;5077281;28;20665;-79
2023/07/13 15:55:54;;;;;;;4.63;1.70;;;;;;;;;;5079868;28;20468;-78
2023/07/13 15:58:25;;;;;;;4.10;1.60;;;;;;;;;;5080486;28;20463;-78
2023/07/13 16:00:53;;;;;;;3.40;1.50;;;;;;;;;;5082113;28;20427;-80
2023/07/13 16:03:22;;;;;;;3.67;1.83;;;;;;;;;;5076096;28;20444;-79
2023/07/13 16:05:50;;;;;;;5.17;1.63;;;;;;;;;;5079859;28;20757;-80
2023/07/13 16:08:22;;;;;;;5.13;1.67;;;;;;;;;;5079475;28;20816;-78
2023/07/13 16:10:49;;;;;;;2.63;1.07;;;;;;;;;;5080612;28;20569;-79
2023/07/13 16:13:19;;;;;;;3.20;2.00;;;;;;;;;;5078457;28;20879;-77
2023/07/13 16:15:48;;;;;;;3.57;1.40;;;;;;;;;;5077955;28;20448;-79
2023/07/13 16:18:16;;;;;;;2.90;1.40;;;;;;;;;;5079226;28;20777;-78
2023/07/13 16:20:45;;;;;;;2.80;1.30;;;;;;;;;;5078206;28;20448;-78
2023/07/13 16:23:14;;;;;;;3.60;1.10;;;;;;;;;;5081475;28;20457;-78
2023/07/13 16:25:42;;;;;;;3.23;1.40;;;;;;;;;;5078240;28;20461;-78
2023/07/13 16:28:11;;;;;;;6.13;1.40;;;;;;;;;;5081991;28;20562;-77
2023/07/13 16:30:39;;;;;;;2.83;1.47;;;;;;;;;;5074649;28;20657;-79
2023/07/13 16:33:09;;;;;;;2.47;1.20;;;;;;;;;;5075856;28;20484;-79
2023/07/13 16:35:38;;;;;;;3.20;1.30;;;;;;;;;;5054539;28;20666;-77
2023/07/13 16:38:13;;;;;;;2.83;1.63;;;;;;;;;;5059814;28;20468;-77
2023/07/13 16:40:42;;;;;;;2.43;1.43;;;;;;;;;;5059890;28;20453;-80
2023/07/13 16:43:13;;;;;;;3.10;1.70;;;;;;;;;;5063086;28;20512;-79
2023/07/13 16:45:43;;;;;;;2.73;1.30;;;;;;;;;;5063992;28;20449;-79
2023/07/13 16:48:15;;;;;;;4.07;1.57;;;;;;;;;;5060821;28;20531;-80
2023/07/13 16:50:44;;;;;;;3.57;2.10;;;;;;;;;;5063486;28;20531;-78
2023/07/13 16:53:19;;;;;;;4.07;1.97;;;;;;;;;;5062648;28;20738;-79
2023/07/13 16:55:47;;;;;;;2.63;1.33;;;;;;;;;;5082241;28;20549;-79
2023/07/13 16:58:15;;;;;;;3.77;1.70;;;;;;;;;;5079901;28;20437;-80